Time;durP1;ratioP1;P1;durP2;ratioP2;P2;SDS_P1;SDS_P2;PMS_P1;PMS_P2;Temp;Humidity;BMP_temperature;BMP_pressure;BME280_temperature;BME280_humidity;BME280_pressure;Samples;Min_cycle;Max_cycle;Signal;HPM_P1;HPM_P2
2023/12/05 00:01:36;;;;;;;16.83;7.32;;;;;;;-0.14;100.00;100772.78;5036284;28;20119;-76
2023/12/05 00:04:03;;;;;;;12.25;5.90;;;;;;;-0.24;100.00;100775.22;5019789;28;20029;-76
2023/12/05 00:06:29;;;;;;;14.48;6.28;;;;;;;-0.26;100.00;100771.00;5035977;28;20033;-77
2023/12/05 00:08:57;;;;;;;20.67;8.85;;;;;;;-0.29;100.00;100784.41;5018672;28;20037;-77
2023/12/05 00:11:23;;;;;;;5.65;3.40;;;;;;;-0.33;100.00;100778.47;5052990;28;20051;-76
2023/12/05 00:13:48;;;;;;;6.72;4.15;;;;;;;-0.26;100.00;100786.84;5019299;28;20032;-76
2023/12/05 00:16:14;;;;;;;8.27;3.42;;;;;;;-0.32;100.00;100789.91;5019201;28;20403;-76
2023/12/05 00:18:46;;;;;;;8.57;4.15;;;;;;;-0.26;100.00;100789.50;5035554;28;20028;-76
2023/12/05 00:21:12;;;;;;;7.95;4.13;;;;;;;-0.28;100.00;100799.31;5052409;28;20063;-76
2023/12/05 00:23:38;;;;;;;6.20;3.33;;;;;;;-0.35;100.00;100792.75;5035791;28;20037;-76
2023/12/05 00:26:04;;;;;;;4.68;2.72;;;;;;;-0.33;100.00;100791.69;5019411;28;20052;-76
2023/12/05 00:28:29;;;;;;;4.72;3.08;;;;;;;-0.24;100.00;100798.13;5019134;28;20086;-76
2023/12/05 00:30:55;;;;;;;8.07;5.25;;;;;;;-0.26;100.00;100787.69;5019436;28;20472;-77
2023/12/05 00:33:23;;;;;;;26.52;12.57;;;;;;;-0.30;100.00;100791.47;5019123;28;20044;-76
2023/12/05 00:35:51;;;;;;;15.98;7.88;;;;;;;-0.35;100.00;100795.41;5035356;28;20136;-76
2023/12/05 00:38:54;;;;;;;9.15;5.80;;;;;;;-0.53;100.00;100787.78;5018374;28;20040;-76
2023/12/05 00:42:56;;;;;;;7.40;4.65;;;;;;;-0.75;100.00;100782.25;5018729;28;20415;-76
2023/12/05 00:49:49;;;;;;;5.93;3.95;;;;;;;-0.90;100.00;100790.25;5031952;28;20041;-77
2023/12/05 00:52:17;;;;;;;5.55;3.33;;;;;;;-0.84;100.00;100819.81;5019144;28;20084;-77
2023/12/05 00:54:44;;;;;;;7.20;4.00;;;;;;;-0.89;100.00;100814.84;5035498;28;20055;-76
2023/12/05 00:57:10;;;;;;;16.52;9.75;;;;;;;-0.94;100.00;100815.13;5051780;28;20112;-76
2023/12/05 00:59:36;;;;;;;14.10;7.38;;;;;;;-1.12;100.00;100811.91;5019103;28;20480;-76
2023/12/05 01:02:05;;;;;;;35.72;18.02;;;;;;;-1.29;100.00;100816.59;5018985;28;20095;-76
2023/12/05 01:04:33;;;;;;;26.63;13.02;;;;;;;-1.40;100.00;100819.91;5019138;28;20103;-76
2023/12/05 01:07:04;;;;;;;28.25;17.02;;;;;;;-1.53;100.00;100817.19;5019423;28;20467;-76
2023/12/05 01:09:30;;;;;;;13.07;8.27;;;;;;;-1.68;100.00;100819.00;5019390;28;20029;-76
2023/12/05 01:11:55;;;;;;;5.05;3.38;;;;;;;-1.76;100.00;100810.72;5018957;28;20040;-76
2023/12/05 01:14:24;;;;;;;5.07;3.05;;;;;;;-1.77;100.00;100811.69;5019096;28;20415;-76
2023/12/05 01:16:49;;;;;;;6.45;3.58;;;;;;;-1.84;100.00;100819.09;5051487;28;20558;-76
2023/12/05 01:19:18;;;;;;;6.88;3.35;;;;;;;-1.90;100.00;100808.94;5019562;28;20184;-76
2023/12/05 01:21:43;;;;;;;5.97;3.55;;;;;;;-1.81;100.00;100810.16;5022626;28;20128;-76
2023/12/05 01:24:13;;;;;;;8.00;4.35;;;;;;;-1.89;100.00;100799.25;5022879;28;20037;-76
2023/12/05 01:26:39;;;;;;;7.65;4.05;;;;;;;-1.93;100.00;100803.88;5022305;28;20439;-76
2023/12/05 01:29:05;;;;;;;6.82;3.78;;;;;;;-1.98;100.00;100805.94;5005873;28;20069;-77
2023/12/05 01:31:30;;;;;;;7.38;3.63;;;;;;;-1.99;100.00;100806.88;5038415;28;20090;-76
2023/12/05 01:33:56;;;;;;;7.05;3.80;;;;;;;-1.89;100.00;100802.72;5022482;28;20041;-77
2023/12/05 01:36:22;;;;;;;9.45;3.70;;;;;;;-1.78;100.00;100805.53;5022154;28;20033;-76
2023/12/05 01:38:48;;;;;;;8.07;2.67;;;;;;;-1.52;100.00;100807.50;5022176;28;20029;-76
2023/12/05 01:41:14;;;;;;;5.50;2.83;;;;;;;-1.51;100.00;100807.38;5038002;28;20047;-77
2023/12/05 01:43:39;;;;;;;7.57;3.45;;;;;;;-1.47;100.00;100810.69;5022021;28;20044;-77
2023/12/05 01:46:06;;;;;;;8.35;3.63;;;;;;;-1.55;100.00;100808.53;5022137;28;20045;-76
2023/12/05 01:48:33;;;;;;;7.25;3.78;;;;;;;-1.84;100.00;100813.00;5071158;28;20037;-76
2023/12/05 01:51:01;;;;;;;5.93;3.00;;;;;;;-2.12;100.00;100812.03;5038336;28;20024;-76
2023/12/05 01:53:27;;;;;;;5.50;3.00;;;;;;;-2.31;100.00;100811.47;5021920;28;20028;-76
2023/12/05 01:55:53;;;;;;;4.18;2.47;;;;;;;-2.56;100.00;100807.66;5038315;28;20041;-76
2023/12/05 01:58:19;;;;;;;3.92;2.45;;;;;;;-2.43;100.00;100802.50;5022042;28;20090;-76
2023/12/05 02:00:47;;;;;;;3.33;2.13;;;;;;;-1.45;100.00;100801.72;5021560;28;20486;-76
2023/12/05 02:03:15;;;;;;;8.73;3.65;;;;;;;-1.05;100.00;100783.31;5021585;28;20025;-77
2023/12/05 02:05:41;;;;;;;4.97;3.47;;;;;;;-0.84;100.00;100789.00;5021822;28;20041;-76
2023/12/05 02:08:08;;;;;;;5.22;2.30;;;;;;;-0.80;100.00;100789.63;5021332;28;20029;-76
2023/12/05 02:10:34;;;;;;;7.97;3.45;;;;;;;-0.66;100.00;100789.56;5005475;28;20103;-76
2023/12/05 02:13:00;;;;;;;9.27;3.55;;;;;;;-0.59;100.00;100789.97;5021774;28;20032;-77
2023/12/05 02:15:26;;;;;;;11.25;5.82;;;;;;;-0.65;100.00;100799.16;5037656;28;20471;-77
2023/12/05 02:18:16;;;;;;;9.23;4.28;;;;;;;-0.78;100.00;100807.06;5021441;28;20029;-77
2023/12/05 02:21:41;;;;;;;6.85;3.30;;;;;;;-0.97;100.00;100799.50;5038481;28;20040;-77
2023/12/05 02:27:59;;;;;;;9.80;3.10;;;;;;;-0.91;100.00;100809.66;5054331;28;20033;-77
2023/12/05 02:30:30;;;;;;;6.72;1.88;;;;;;;-0.83;100.00;100809.16;5020994;28;20408;-77
2023/12/05 02:32:57;;;;;;;5.35;2.22;;;;;;;-0.67;100.00;100816.91;5020921;28;20048;-76
2023/12/05 02:35:23;;;;;;;5.60;1.55;;;;;;;-0.42;100.00;100807.31;5021364;28;20044;-76
2023/12/05 02:37:54;;;;;;;5.80;1.90;;;;;;;-0.30;100.00;100811.78;5005029;28;20045;-77
2023/12/05 02:40:34;;;;;;;2.88;1.73;;;;;;;-0.26;100.00;100816.75;5053565;28;20029;-77
2023/12/05 02:43:04;;;;;;;3.72;1.80;;;;;;;-0.27;100.00;100819.50;5021159;28;20037;-77
2023/12/05 02:45:35;;;;;;;6.63;1.95;;;;;;;-0.16;100.00;100830.19;5037635;28;20117;-77
2023/12/05 02:48:26;;;;;;;5.97;1.98;;;;;;;-0.13;100.00;100827.34;5036786;28;20040;-77
2023/12/05 02:51:06;;;;;;;4.32;1.92;;;;;;;-0.36;100.00;100823.63;5035923;28;20487;-76
2023/12/05 02:54:23;;;;;;;6.00;2.35;;;;;;;-0.72;100.00;100819.84;5053552;28;20090;-77
2023/12/05 02:57:34;;;;;;;7.30;3.22;;;;;;;-1.11;100.00;100823.31;5039625;28;20428;-77
2023/12/05 03:00:15;;;;;;;6.47;2.80;;;;;;;-1.21;100.00;100832.78;5041071;28;20176;-77
2023/12/05 03:03:09;;;;;;;8.48;3.60;;;;;;;-1.50;100.00;100830.19;5020580;28;20033;-76
2023/12/05 03:06:05;;;;;;;6.17;2.87;;;;;;;-1.66;100.00;100851.38;5039807;28;20076;-76
2023/12/05 03:09:24;;;;;;;;;;;;;;;;;;;;;
2023/12/05 03:12:56;;;;;;;4.60;3.20;;;;;;;-2.26;100.00;100854.16;5044499;28;20044;-76
2023/12/05 03:15:23;;;;;;;;;;;;;;;-2.45;100.00;100863.16;4998118;28;20523;-75
2023/12/05 03:17:54;;;;;;;6.75;2.50;;;;;;;-2.71;100.00;100856.75;5015417;28;19909;-75
2023/12/05 03:20:43;;;;;;;;;;;;;;;;;;;;;
2023/12/05 03:23:19;;;;;;;5.57;3.38;;;;;;;-3.09;100.00;100864.22;5053233;28;20029;-76
2023/12/05 03:25:47;;;;;;;5.03;3.17;;;;;;;-3.04;100.00;100870.06;5020162;28;20071;-76
2023/12/05 03:28:13;;;;;;;6.35;3.28;;;;;;;-2.97;100.00;100863.50;5036453;28;20025;-76
2023/12/05 03:30:38;;;;;;;5.00;2.58;;;;;;;-2.88;100.00;100863.00;5020338;28;20155;-75
2023/12/05 03:33:04;;;;;;;6.18;3.10;;;;;;;-2.66;100.00;100867.03;5019859;28;20124;-75
2023/12/05 03:35:30;;;;;;;3.92;2.38;;;;;;;-2.48;100.00;100867.75;5020148;28;20021;-76
2023/12/05 03:37:55;;;;;;;8.10;3.28;;;;;;;-2.58;100.00;100875.34;5020131;28;20067;-76
2023/12/05 03:40:21;;;;;;;6.40;3.17;;;;;;;-2.73;100.00;100868.31;5019979;28;20051;-76
2023/12/05 03:42:47;;;;;;;8.05;3.38;;;;;;;-2.91;100.00;100857.91;5035454;28;20033;-76
2023/12/05 03:45:12;;;;;;;11.00;4.22;;;;;;;-3.08;100.00;100865.06;5020099;28;20040;-76
2023/12/05 03:47:42;;;;;;;7.53;3.10;;;;;;;-3.20;100.00;100862.19;5019961;28;20135;-76
2023/12/05 03:50:08;;;;;;;5.97;3.55;;;;;;;-3.27;100.00;100863.44;5019488;28;20051;-75
2023/12/05 03:52:34;;;;;;;10.63;2.78;;;;;;;-3.39;100.00;100862.31;5035831;28;20128;-75
2023/12/05 03:55:03;;;;;;;4.50;3.03;;;;;;;-3.55;100.00;100864.09;5019943;28;20029;-75
2023/12/05 03:57:29;;;;;;;5.75;2.60;;;;;;;-3.71;100.00;100866.69;5019895;28;20037;-75
2023/12/05 03:59:54;;;;;;;4.90;2.83;;;;;;;-3.81;100.00;100876.88;5019938;28;20107;-77
2023/12/05 04:02:51;;;;;;;;;;;;;;;;;;;;;
2023/12/05 04:10:09;;;;;;;3.90;2.45;;;;;;;-3.52;100.00;100882.31;5030929;28;20030;-77
2023/12/05 04:16:38;;;;;;;5.68;2.03;;;;;;;-3.28;100.00;100874.03;4984398;28;20473;-77
2023/12/05 04:19:07;;;;;;;5.50;2.90;;;;;;;-3.23;100.00;100890.41;5014993;28;20045;-77
2023/12/05 04:21:32;;;;;;;4.22;2.13;;;;;;;-3.36;100.00;100884.97;5035662;28;20033;-77
2023/12/05 04:23:59;;;;;;;8.82;3.05;;;;;;;-3.47;100.00;100882.09;5019432;28;20036;-77
2023/12/05 04:26:25;;;;;;;6.28;2.60;;;;;;;-3.64;100.00;100877.75;5036232;28;20035;-76
2023/12/05 04:28:51;;;;;;;9.20;3.47;;;;;;;-3.68;100.00;100878.81;5019276;28;20391;-76
2023/12/05 04:31:16;;;;;;;7.82;2.45;;;;;;;-3.72;100.00;100882.56;5019301;28;20033;-77
2023/12/05 04:33:44;;;;;;;6.75;3.08;;;;;;;-3.81;100.00;100873.38;5019505;28;20037;-77
2023/12/05 04:36:11;;;;;;;5.78;2.50;;;;;;;-3.90;100.00;100879.97;5019133;28;20124;-77
2023/12/05 04:38:40;;;;;;;6.70;2.72;;;;;;;-4.05;100.00;100881.63;5018710;28;20032;-77
2023/12/05 04:41:33;;;;;;;8.32;2.58;;;;;;;-4.16;100.00;100886.56;5031242;28;20041;-77
2023/12/05 04:44:09;;;;;;;8.77;2.17;;;;;;;-4.06;100.00;100892.19;5036124;28;20112;-77
2023/12/05 04:46:38;;;;;;;3.72;2.10;;;;;;;-3.94;100.00;100886.31;5018899;28;20064;-77
2023/12/05 04:49:10;;;;;;;5.03;2.83;;;;;;;-3.87;100.00;100899.97;5035919;28;20021;-77
2023/12/05 04:51:47;;;;;;;6.07;2.60;;;;;;;-4.07;100.00;100872.97;5018799;28;20039;-78
2023/12/05 04:54:14;;;;;;;10.63;3.58;;;;;;;-4.00;100.00;100895.34;5069119;28;20047;-77
2023/12/05 04:56:42;;;;;;;7.88;3.22;;;;;;;-4.01;100.00;100891.03;5039241;28;20036;-77
2023/12/05 04:59:14;;;;;;;4.65;2.40;;;;;;;-4.04;100.00;100896.44;5022133;28;20044;-77
2023/12/05 05:01:47;;;;;;;5.22;2.70;;;;;;;-4.15;100.00;100903.16;5024257;28;20135;-77
2023/12/05 05:04:27;;;;;;;3.70;2.38;;;;;;;-4.11;100.00;100916.06;5029684;28;20434;-77
2023/12/05 05:07:04;;;;;;;4.57;2.35;;;;;;;-4.16;100.00;100915.44;5022609;28;20037;-77
2023/12/05 05:09:39;;;;;;;4.55;2.25;;;;;;;-4.16;100.00;100911.97;5022964;28;20072;-77
2023/12/05 05:12:52;;;;;;;6.65;2.03;;;;;;;-4.13;100.00;100917.06;5021482;28;20483;-77
2023/12/05 05:15:43;;;;;;;3.58;2.28;;;;;;;-4.12;100.00;100914.38;5039176;28;20055;-78
2023/12/05 05:18:35;;;;;;;1.83;1.65;;;;;;;-4.14;100.00;100902.25;5056628;28;20035;-77
2023/12/05 05:21:15;;;;;;;2.85;1.52;;;;;;;-3.96;100.00;100900.47;5025839;28;20178;-78
2023/12/05 05:24:03;;;;;;;4.10;2.20;;;;;;;-3.82;100.00;100919.81;5055030;28;20529;-76
2023/12/05 05:26:44;;;;;;;3.25;2.15;;;;;;;-3.88;100.00;100924.56;5022529;28;20127;-78
2023/12/05 05:29:10;;;;;;;4.68;1.92;;;;;;;-3.95;100.00;100926.63;5038542;28;20447;-77
2023/12/05 05:31:38;;;;;;;6.75;2.85;;;;;;;-4.15;100.00;100909.28;5071227;28;20108;-77
2023/12/05 05:34:25;;;;;;;3.33;2.60;;;;;;;-4.20;100.00;100906.88;5022209;28;20045;-77
2023/12/05 05:37:01;;;;;;;2.58;1.55;;;;;;;-4.09;100.00;100929.97;5038547;28;20035;-77
2023/12/05 05:40:11;;;;;;;5.28;1.92;;;;;;;-4.20;100.00;100927.03;5028814;28;20049;-77
2023/12/05 05:42:53;;;;;;;2.90;1.83;;;;;;;-4.42;100.00;100924.63;5038586;28;20510;-77
2023/12/05 05:48:43;;;;;;;5.40;2.38;;;;;;;-4.47;100.00;100951.13;5042717;28;20076;-77
2023/12/05 05:51:42;;;;;;;4.75;1.92;;;;;;;-4.67;100.00;100946.81;5037821;28;20045;-77
2023/12/05 05:54:59;;;;;;;;;;;;;;;;;;;;;
2023/12/05 05:58:25;;;;;;;6.25;2.47;;;;;;;-4.19;100.00;100965.50;4983917;28;20404;-77
2023/12/05 06:05:05;;;;;;;3.08;2.17;;;;;;;-4.40;100.00;100956.91;4953711;28;20524;-77
2023/12/05 06:07:44;;;;;;;5.32;2.42;;;;;;;-4.36;100.00;100953.22;4962479;28;20034;-77
2023/12/05 06:10:16;;;;;;;6.85;3.47;;;;;;;-4.53;100.00;100938.28;4961687;28;20404;-77
2023/12/05 06:13:03;;;;;;;9.25;2.65;;;;;;;-4.50;100.00;100937.28;4983049;28;20043;-77
2023/12/05 06:15:32;;;;;;;5.20;2.17;;;;;;;-4.44;100.00;100948.34;5054658;28;20036;-77
2023/12/05 06:18:24;;;;;;;7.25;2.55;;;;;;;-4.54;100.00;100931.34;5038038;28;20048;-77
2023/12/05 06:21:10;;;;;;;3.13;1.90;;;;;;;-4.30;100.00;100915.31;5021679;28;20033;-77
2023/12/05 06:24:04;;;;;;;5.88;2.67;;;;;;;-4.30;100.00;100928.44;5021525;28;20059;-77
2023/12/05 06:26:41;;;;;;;6.28;2.22;;;;;;;-4.35;100.00;100938.31;5040019;28;20048;-77
2023/12/05 06:29:10;;;;;;;8.18;3.05;;;;;;;-4.32;100.00;100953.91;5055108;28;20120;-77
2023/12/05 06:31:36;;;;;;;6.97;3.15;;;;;;;-4.21;100.00;100949.84;5021354;28;20037;-77
2023/12/05 06:34:02;;;;;;;9.48;4.40;;;;;;;-4.14;100.00;100944.25;5054225;28;20380;-77
2023/12/05 06:36:30;;;;;;;9.15;3.80;;;;;;;-4.17;100.00;100941.81;5037327;28;20120;-77
2023/12/05 06:38:56;;;;;;;10.65;4.18;;;;;;;-4.25;100.00;100943.03;5021025;28;20471;-77
2023/12/05 06:41:24;;;;;;;7.38;3.70;;;;;;;-4.45;100.00;100944.00;5020939;28;20041;-77
2023/12/05 06:43:52;;;;;;;9.60;3.03;;;;;;;-4.71;100.00;100947.03;5021760;28;20032;-77
2023/12/05 06:46:40;;;;;;;;;;;;;;;;;;;;;
2023/12/05 06:49:38;;;;;;;4.80;3.13;;;;;;;-4.82;100.00;100955.41;5055313;28;20043;-77
2023/12/05 06:52:59;;;;;;;;;;;;;;;;;;;;;
2023/12/05 06:59:40;;;;;;;7.57;3.25;;;;;;;-4.08;100.00;100950.03;5005487;28;20120;-77
2023/12/05 07:03:26;;;;;;;7.63;3.00;;;;;;;-4.15;100.00;100927.66;5034553;28;20553;-76
2023/12/05 07:07:06;;;;;;;4.50;2.78;;;;;;;-4.29;100.00;100928.34;5026974;28;20044;-76
2023/12/05 07:10:54;;;;;;;10.40;3.70;;;;;;;-4.36;100.00;100923.50;5007319;28;20055;-76
2023/12/05 07:14:52;;;;;;;4.32;2.40;;;;;;;-4.49;100.00;100947.72;4972710;28;20413;-76
2023/12/05 07:17:56;;;;;;;6.25;2.78;;;;;;;-4.54;100.00;100951.50;4942333;28;20042;-76
2023/12/05 07:20:58;;;;;;;7.80;2.55;;;;;;;-4.63;100.00;100955.41;4995232;28;20054;-76
2023/12/05 07:24:02;;;;;;;3.92;2.20;;;;;;;-4.75;100.00;100940.25;4961668;28;20047;-76
2023/12/05 07:26:30;;;;;;;6.60;2.65;;;;;;;-4.76;100.00;100949.91;5036077;28;20479;-75
2023/12/05 07:28:56;;;;;;;5.82;2.47;;;;;;;-4.81;100.00;100965.00;5020137;28;20040;-75
2023/12/05 07:31:24;;;;;;;3.53;2.03;;;;;;;-4.98;100.00;100971.03;5020279;28;20032;-75
2023/12/05 07:33:53;;;;;;;3.00;1.42;;;;;;;-5.01;100.00;100980.81;5020972;28;20123;-75
2023/12/05 07:36:19;;;;;;;4.47;2.15;;;;;;;-4.97;100.00;100978.00;5020077;28;20403;-75
2023/12/05 07:38:45;;;;;;;3.30;2.45;;;;;;;-4.77;100.00;100981.44;5020010;28;20025;-75
2023/12/05 07:41:24;;;;;;;4.25;2.20;;;;;;;-4.38;100.00;100977.84;5019977;28;20037;-75
2023/12/05 07:43:53;;;;;;;8.35;2.83;;;;;;;-4.25;100.00;100978.94;5021012;28;20475;-76
2023/12/05 07:46:26;;;;;;;8.60;3.08;;;;;;;-4.28;100.00;100981.72;5020831;28;20036;-75
2023/12/05 07:48:52;;;;;;;12.85;4.90;;;;;;;-4.52;100.00;100976.72;5019617;28;20032;-75
2023/12/05 07:51:17;;;;;;;10.40;3.83;;;;;;;-4.55;100.00;100982.13;5019557;28;20025;-75
2023/12/05 07:53:45;;;;;;;7.50;3.95;;;;;;;-4.59;100.00;100985.81;5019847;28;20031;-73
2023/12/05 07:56:11;;;;;;;7.68;3.90;;;;;;;-4.57;100.00;100991.00;5035926;28;20032;-74
2023/12/05 07:58:40;;;;;;;5.70;3.40;;;;;;;-4.64;100.00;100998.31;5020632;28;20029;-74
2023/12/05 08:01:06;;;;;;;6.43;3.58;;;;;;;-4.77;100.00;100998.03;5019575;28;20190;-74
2023/12/05 08:03:33;;;;;;;5.40;3.05;;;;;;;-4.86;100.00;101012.44;5019703;28;20033;-74
2023/12/05 08:06:02;;;;;;;6.80;3.67;;;;;;;-4.96;100.00;101011.16;5035954;28;20122;-74
2023/12/05 08:08:34;;;;;;;9.20;3.60;;;;;;;-4.97;100.00;101019.09;5019535;28;20482;-74
2023/12/05 08:11:01;;;;;;;6.50;4.20;;;;;;;-4.90;100.00;101028.38;5052465;28;20490;-74
2023/12/05 08:13:29;;;;;;;11.05;5.15;;;;;;;-4.82;100.00;101023.63;5035857;28;20025;-74
2023/12/05 08:15:55;;;;;;;9.98;5.32;;;;;;;-4.90;100.00;101020.50;5019525;28;20040;-74
2023/12/05 08:18:23;;;;;;;17.98;9.27;;;;;;;-4.65;100.00;101022.84;5019314;28;20052;-75
2023/12/05 08:20:49;;;;;;;24.92;12.23;;;;;;;-4.56;100.00;101022.41;5019256;28;20494;-74
2023/12/05 08:23:15;;;;;;;10.27;6.18;;;;;;;-4.39;100.00;101026.88;5035653;28;20025;-74
2023/12/05 08:25:41;;;;;;;12.23;6.18;;;;;;;-4.14;100.00;101029.13;5019233;28;20388;-74
2023/12/05 08:32:42;;;;;;;;;;;;;;;;;;;;;
2023/12/05 08:35:22;;;;;;;17.45;6.10;;;;;;;-3.93;100.00;101031.63;5017440;28;20037;-75
2023/12/05 08:37:48;;;;;;;13.82;5.82;;;;;;;-4.02;100.00;101040.84;5006209;28;20402;-76
2023/12/05 08:40:14;;;;;;;16.90;4.63;;;;;;;-4.05;100.00;101033.97;5016949;28;20075;-76
2023/12/05 08:42:44;;;;;;;16.05;4.60;;;;;;;-4.08;100.00;101036.72;5000877;28;20052;-76
2023/12/05 08:45:24;;;;;;;7.60;3.55;;;;;;;-4.07;100.00;101043.69;5050884;28;20040;-76
2023/12/05 08:48:01;;;;;;;9.82;4.38;;;;;;;-4.16;100.00;101038.84;5049362;28;20033;-76
2023/12/05 08:50:34;;;;;;;15.90;5.40;;;;;;;-4.23;100.00;101047.97;5016448;28;20036;-76
2023/12/05 08:53:03;;;;;;;10.95;4.57;;;;;;;-4.30;100.00;101047.41;5017561;28;20037;-77
2023/12/05 08:55:29;;;;;;;6.55;3.72;;;;;;;-4.45;100.00;101048.97;5035866;28;20110;-76
2023/12/05 08:57:58;;;;;;;14.88;3.92;;;;;;;-4.53;100.00;101047.66;5018989;28;20033;-77
2023/12/05 09:00:25;;;;;;;7.57;3.55;;;;;;;-4.49;100.00;101052.69;5019202;28;20033;-77
2023/12/05 09:02:56;;;;;;;15.15;4.93;;;;;;;-4.47;100.00;101058.72;5035428;28;20040;-76
2023/12/05 09:05:53;;;;;;;9.77;3.63;;;;;;;-4.48;100.00;101051.75;5036031;28;20033;-77
2023/12/05 09:08:29;;;;;;;8.75;4.65;;;;;;;-4.37;100.00;101051.25;5021470;28;20114;-77
2023/12/05 09:10:57;;;;;;;7.25;3.85;;;;;;;-4.35;100.00;101051.19;5018814;28;20036;-78
2023/12/05 09:13:23;;;;;;;9.20;5.05;;;;;;;-4.35;100.00;101045.94;5019007;28;20061;-77
2023/12/05 09:15:53;;;;;;;17.30;6.95;;;;;;;-4.25;100.00;101052.44;5035328;28;20043;-77
2023/12/05 09:18:20;;;;;;;15.90;6.57;;;;;;;-4.21;100.00;101046.97;5019341;28;20052;-77
2023/12/05 09:20:45;;;;;;;16.42;6.47;;;;;;;-4.15;100.00;101064.22;5019047;28;20051;-77
2023/12/05 09:23:11;;;;;;;13.40;6.53;;;;;;;-4.13;100.00;101064.13;5035105;28;20045;-77
2023/12/05 09:25:37;;;;;;;14.43;5.95;;;;;;;-4.15;100.00;101061.59;5018481;28;20037;-77
2023/12/05 09:28:03;;;;;;;12.25;5.00;;;;;;;-4.12;100.00;101058.81;5018877;28;20048;-77
2023/12/05 09:30:30;;;;;;;12.20;5.40;;;;;;;-4.04;100.00;101058.44;5068087;28;20040;-77
2023/12/05 09:33:02;;;;;;;11.07;5.85;;;;;;;-4.08;100.00;101051.63;5003376;28;20041;-77
2023/12/05 09:35:28;;;;;;;13.50;5.45;;;;;;;-3.86;100.00;101054.06;5018745;28;20033;-77
2023/12/05 09:37:54;;;;;;;13.45;5.82;;;;;;;-3.60;100.00;101060.59;5051168;28;20044;-77
2023/12/05 09:40:21;;;;;;;11.13;4.30;;;;;;;-3.51;100.00;101040.91;5053367;28;20118;-78
2023/12/05 09:43:02;;;;;;;13.02;6.20;;;;;;;-3.29;100.00;101030.13;5023040;28;20041;-77
2023/12/05 09:45:34;;;;;;;18.92;6.18;;;;;;;-3.01;100.00;101042.69;5037465;28;20048;-78
2023/12/05 09:48:06;;;;;;;14.98;8.43;;;;;;;-2.67;100.00;101044.34;5021974;28;20061;-78
2023/12/05 09:50:50;;;;;;;21.50;12.98;;;;;;;-2.53;100.00;101041.78;5053387;28;20087;-78
2023/12/05 09:53:17;;;;;;;24.38;10.05;;;;;;;-2.19;100.00;101042.53;5038594;28;20078;-78
2023/12/05 09:55:43;;;;;;;20.83;9.48;;;;;;;-1.96;100.00;101043.84;5021858;28;20024;-79
2023/12/05 09:58:10;;;;;;;18.13;8.68;;;;;;;-1.99;100.00;101046.66;5038035;28;20028;-78
2023/12/05 10:01:06;;;;;;;;;;;;;;;;;;;;;
2023/12/05 10:03:53;;;;;;;19.92;7.68;;;;;;;-1.59;100.00;101041.69;5053765;28;20052;-77
2023/12/05 10:06:20;;;;;;;12.43;5.65;;;;;;;-0.86;100.00;101054.88;5021653;28;20090;-77
2023/12/05 10:08:47;;;;;;;11.32;5.20;;;;;;;-0.11;100.00;101047.44;5021055;28;20467;-76
2023/12/05 10:11:13;;;;;;;11.73;5.28;;;;;;;0.49;100.00;101045.28;5021628;28;20036;-77
2023/12/05 10:13:42;;;;;;;14.52;5.55;;;;;;;0.90;100.00;101052.16;5005415;28;20413;-77
2023/12/05 10:16:09;;;;;;;16.52;6.57;;;;;;;1.31;100.00;101046.63;5021580;28;20125;-77
2023/12/05 10:18:35;;;;;;;12.23;5.82;;;;;;;1.72;100.00;101043.66;5037765;28;20033;-77
2023/12/05 10:21:06;;;;;;;13.45;6.20;;;;;;;1.92;100.00;101042.19;5021270;28;20083;-77
2023/12/05 10:23:32;;;;;;;16.50;8.10;;;;;;;1.62;100.00;101042.63;5038391;28;20040;-77
2023/12/05 10:25:58;;;;;;;20.83;13.82;;;;;;;1.11;100.00;101040.06;5021369;28;20044;-78
2023/12/05 10:28:24;;;;;;;21.98;16.65;;;;;;;1.12;100.00;101039.13;5021441;28;20025;-77
2023/12/05 10:30:54;;;;;;;12.77;8.77;;;;;;;1.24;100.00;101048.84;5021718;28;20132;-77
2023/12/05 10:33:22;;;;;;;16.50;6.00;;;;;;;1.43;100.00;101047.53;5022438;28;20041;-77
2023/12/05 10:35:48;;;;;;;16.55;7.07;;;;;;;1.37;100.00;101043.53;5021176;28;20029;-77
2023/12/05 10:38:17;;;;;;;15.73;6.20;;;;;;;1.09;100.00;101037.56;5037164;28;20495;-77
2023/12/05 10:40:55;;;;;;;10.35;4.68;;;;;;;1.02;100.00;101043.38;5053908;28;20043;-77
2023/12/05 10:43:31;;;;;;;13.52;4.70;;;;;;;1.18;100.00;101036.03;5037489;28;20032;-78
2023/12/05 10:49:09;;;;;;;14.18;7.88;;;;;;;0.85;100.00;101021.59;5041114;28;20082;-79
2023/12/05 10:52:13;;;;;;;;;;;;;;;;;;;;;
2023/12/05 10:54:44;;;;;;;19.50;9.98;;;;;;;0.85;100.00;101047.22;5052919;28;20048;-78
2023/12/05 10:57:10;;;;;;;15.50;8.48;;;;;;;0.98;100.00;101033.94;5053424;28;20411;-78
2023/12/05 10:59:42;;;;;;;22.10;9.55;;;;;;;0.93;100.00;101033.41;5019857;28;20041;-78
2023/12/05 11:02:20;;;;;;;11.43;5.97;;;;;;;0.97;100.00;101029.63;5037435;28;20467;-78
2023/12/05 11:04:45;;;;;;;12.18;4.68;;;;;;;0.94;100.00;101024.53;5021204;28;20036;-77
2023/12/05 11:07:11;;;;;;;14.90;5.00;;;;;;;0.98;100.00;101032.16;5020785;28;20144;-77
2023/12/05 11:09:43;;;;;;;9.05;3.45;;;;;;;1.23;100.00;101028.63;5053355;28;20037;-77
2023/12/05 11:12:09;;;;;;;6.07;2.72;;;;;;;1.27;100.00;101034.53;5037236;28;20047;-77
2023/12/05 11:14:41;;;;;;;5.63;2.58;;;;;;;1.15;100.00;101030.97;5020660;28;20132;-77
2023/12/05 11:17:13;;;;;;;4.20;2.42;;;;;;;0.97;100.00;101037.56;5021297;28;20037;-77
2023/12/05 11:19:53;;;;;;;9.73;3.50;;;;;;;0.97;100.00;101033.09;5037642;28;20029;-77
2023/12/05 11:22:27;;;;;;;9.40;5.90;;;;;;;1.06;100.00;101036.94;5036656;28;20025;-77
2023/12/05 11:25:09;;;;;;;14.18;7.40;;;;;;;1.15;100.00;101041.56;5053116;28;20032;-77
2023/12/05 11:27:41;;;;;;;9.52;6.63;;;;;;;1.24;100.00;101032.94;5020443;28;20060;-77
2023/12/05 11:30:07;;;;;;;8.88;5.88;;;;;;;1.44;100.00;101028.06;5036396;28;20060;-78
2023/12/05 11:32:57;;;;;;;9.80;7.20;;;;;;;1.60;100.00;101028.63;5053490;28;20458;-78
2023/12/05 11:36:05;;;;;;;13.48;7.22;;;;;;;1.53;100.00;101027.38;5019262;28;20059;-78
2023/12/05 11:38:31;;;;;;;16.92;8.48;;;;;;;1.49;100.00;101004.72;5029231;28;20029;-78
2023/12/05 11:41:11;;;;;;;24.08;12.45;;;;;;;1.49;100.00;101017.97;5034301;28;20056;-78
2023/12/05 11:43:36;;;;;;;20.90;11.85;;;;;;;1.48;100.00;101014.47;5019036;28;20461;-77
2023/12/05 11:46:03;;;;;;;10.23;7.13;;;;;;;1.72;100.00;101017.16;5018905;28;20119;-78
2023/12/05 11:48:30;;;;;;;6.30;3.55;;;;;;;1.83;100.00;101019.00;5020027;28;20120;-78
2023/12/05 11:51:15;;;;;;;7.93;3.03;;;;;;;1.76;100.00;101004.50;5019941;28;20044;-78
2023/12/05 11:53:49;;;;;;;7.65;4.95;;;;;;;1.70;100.00;101008.44;5037040;28;20041;-78
2023/12/05 11:56:19;;;;;;;14.80;8.45;;;;;;;1.64;100.00;101011.56;5019931;28;20102;-77
2023/12/05 11:58:45;;;;;;;9.18;5.53;;;;;;;1.63;100.00;101007.19;5019852;28;20475;-77
2023/12/05 12:01:14;;;;;;;8.82;5.57;;;;;;;1.64;100.00;101006.25;5019919;28;20037;-78
2023/12/05 12:03:50;;;;;;;0.50;0.50;;;;;;;1.72;100.00;101003.88;5035814;28;20472;-77
2023/12/05 12:06:17;;;;;;;0.50;0.50;;;;;;;1.87;100.00;101001.91;5036488;28;20071;-77
2023/12/05 12:08:45;;;;;;;0.40;0.40;;;;;;;2.00;100.00;100993.88;5052639;28;20039;-77
2023/12/05 12:11:11;;;;;;;0.40;0.40;;;;;;;2.01;100.00;100984.94;5019869;28;20041;-77
2023/12/05 12:13:37;;;;;;;0.40;0.40;;;;;;;2.19;100.00;100996.81;5019641;28;20037;-77
2023/12/05 12:16:03;;;;;;;0.50;0.50;;;;;;;2.34;100.00;100994.84;5019674;28;20051;-78
2023/12/05 12:18:32;;;;;;;0.40;0.40;;;;;;;2.39;100.00;100967.94;5036064;28;20029;-78
2023/12/05 12:20:58;;;;;;;0.40;0.40;;;;;;;2.52;100.00;100983.78;5019704;28;20040;-78
2023/12/05 12:23:23;;;;;;;0.50;0.50;;;;;;;2.61;100.00;100994.50;5052086;28;20032;-78
2023/12/05 12:25:52;;;;;;;0.40;0.40;;;;;;;2.74;100.00;100997.06;5035569;28;20025;-78
2023/12/05 12:28:29;;;;;;;0.40;0.40;;;;;;;3.21;100.00;100996.97;5035516;28;20024;-78
2023/12/05 12:30:58;;;;;;;0.50;0.50;;;;;;;3.63;100.00;100982.00;5052250;28;20028;-80
2023/12/05 12:33:38;;;;;;;0.50;0.50;;;;;;;4.08;100.00;100976.53;5052075;28;20028;-79
2023/12/05 12:36:05;;;;;;;0.30;0.30;;;;;;;4.17;100.00;100975.72;5035801;28;20517;-80
2023/12/05 12:38:33;;;;;;;0.47;0.47;;;;;;;4.55;100.00;100978.78;5035632;28;20071;-79
2023/12/05 12:40:59;;;;;;;0.40;0.40;;;;;;;4.89;100.00;100982.03;5035623;28;20033;-79